createdAt,value
2023-02-09T00:00:08.632Z,-1.25
2023-02-09T00:01:08.571Z,-1.36
2023-02-09T00:02:08.605Z,-1.26
2023-02-09T00:03:08.564Z,-1.32
2023-02-09T00:04:08.529Z,-1.36
2023-02-09T00:05:08.519Z,-1.36
2023-02-09T00:06:08.485Z,-1.32
2023-02-09T00:07:08.504Z,-1.29
2023-02-09T00:08:08.472Z,-1.29
2023-02-09T00:09:08.429Z,-1.31
2023-02-09T00:10:08.410Z,-1.35
2023-02-09T00:11:08.420Z,-1.36
2023-02-09T00:12:08.381Z,-1.36
2023-02-09T00:13:08.417Z,-1.43
2023-02-09T00:14:08.370Z,-1.32
2023-02-09T00:15:08.338Z,-1.41
2023-02-09T00:16:08.378Z,-1.32
2023-02-09T00:17:08.294Z,-1.39
2023-02-09T00:18:08.337Z,-1.39
2023-02-09T00:19:08.282Z,-1.38
2023-02-09T00:20:08.242Z,-1.36
2023-02-09T00:21:08.245Z,-1.38
2023-02-09T00:22:08.206Z,-1.35
2023-02-09T00:23:08.217Z,-1.36
2023-02-09T00:24:08.169Z,-1.38
2023-02-09T00:25:08.156Z,-1.49
2023-02-09T00:26:08.138Z,-1.44
2023-02-09T00:27:08.143Z,-1.46
2023-02-09T00:28:08.155Z,-1.35
2023-02-09T00:29:08.093Z,-1.39
2023-02-09T00:30:08.082Z,-1.44
2023-02-09T00:31:08.187Z,-1.41
2023-02-09T00:32:08.053Z,-1.43
2023-02-09T00:33:08.048Z,-1.46
2023-02-09T00:34:08.008Z,-1.35
2023-02-09T00:35:07.974Z,-1.43
2023-02-09T00:36:07.961Z,-1.47
2023-02-09T00:37:07.949Z,-1.46
2023-02-09T00:38:07.962Z,-1.41
2023-02-09T00:39:07.934Z,-1.54
2023-02-09T00:40:07.908Z,-1.47
2023-02-09T00:41:07.902Z,-1.51
2023-02-09T00:42:07.865Z,-1.50
2023-02-09T00:43:07.910Z,-1.49
2023-02-09T00:44:07.869Z,-1.61
2023-02-09T00:45:07.794Z,-1.54
2023-02-09T00:46:07.869Z,-1.43
2023-02-09T00:47:07.767Z,-1.47
2023-02-09T00:48:07.798Z,-1.59
2023-02-09T00:49:07.738Z,-1.49
2023-02-09T00:50:07.733Z,-1.49
2023-02-09T00:51:07.690Z,-1.49
2023-02-09T00:52:09.815Z,-1.57
2023-02-09T00:53:07.831Z,-1.46
2023-02-09T00:54:07.649Z,-1.57
2023-02-09T00:55:07.639Z,-1.57
2023-02-09T00:56:07.612Z,-1.51
2023-02-09T00:57:07.599Z,-1.44
2023-02-09T00:58:07.573Z,-1.64
2023-02-09T00:59:07.593Z,-1.59
2023-02-09T01:00:07.545Z,-1.56
2023-02-09T01:01:07.538Z,-1.54
2023-02-09T01:02:07.501Z,-1.44
2023-02-09T01:03:07.517Z,-1.50
2023-02-09T01:04:07.494Z,-1.51
2023-02-09T01:05:07.463Z,-1.49
2023-02-09T01:06:07.436Z,-1.59
2023-02-09T01:07:07.411Z,-1.57
2023-02-09T01:08:07.389Z,-1.49
2023-02-09T01:09:07.399Z,-1.47
2023-02-09T01:10:07.392Z,-1.47
2023-02-09T01:11:07.342Z,-1.46
2023-02-09T01:12:07.324Z,-1.46
2023-02-09T01:13:07.327Z,-1.49
2023-02-09T01:14:07.326Z,-1.39
2023-02-09T01:15:07.287Z,-1.44
2023-02-09T01:16:07.267Z,-1.46
2023-02-09T01:17:07.339Z,-1.44
2023-02-09T01:18:07.242Z,-1.51
2023-02-09T01:19:07.232Z,-1.50
2023-02-09T01:20:07.204Z,-1.50
2023-02-09T01:21:07.166Z,-1.49
2023-02-09T01:22:07.153Z,-1.50
2023-02-09T01:23:07.126Z,-1.51
2023-02-09T01:24:07.164Z,-1.64
2023-02-09T01:25:07.101Z,-1.54
2023-02-09T01:26:07.125Z,-1.47
2023-02-09T01:27:07.055Z,-1.46
2023-02-09T01:28:07.070Z,-1.62
2023-02-09T01:29:07.262Z,-1.61
2023-02-09T01:30:07.050Z,-1.50
2023-02-09T01:31:07.094Z,-1.53
2023-02-09T01:32:07.010Z,-1.62
2023-02-09T01:33:06.964Z,-1.67
2023-02-09T01:34:06.976Z,-1.62
2023-02-09T01:35:06.952Z,-1.64
2023-02-09T01:36:06.902Z,-1.59
2023-02-09T01:37:06.888Z,-1.67
2023-02-09T01:38:06.871Z,-1.57
2023-02-09T01:39:06.877Z,-1.64
2023-02-09T01:40:06.842Z,-1.65
2023-02-09T01:41:06.844Z,-1.59
2023-02-09T01:42:06.796Z,-1.62
2023-02-09T01:43:06.786Z,-1.57
2023-02-09T01:44:06.798Z,-1.70
2023-02-09T01:45:06.768Z,-1.61
2023-02-09T01:46:06.762Z,-1.54
2023-02-09T01:47:06.714Z,-1.59
2023-02-09T01:48:06.717Z,-1.64
2023-02-09T01:49:06.725Z,-1.62
2023-02-09T01:50:06.710Z,-1.61
2023-02-09T01:51:06.637Z,-1.57
2023-02-09T01:52:06.649Z,-1.59
2023-02-09T01:53:06.603Z,-1.71
2023-02-09T01:54:06.618Z,-1.74
2023-02-09T01:55:06.584Z,-1.70
2023-02-09T01:56:06.559Z,-1.65
2023-02-09T01:57:06.537Z,-1.59
2023-02-09T01:58:06.532Z,-1.68
2023-02-09T01:59:06.564Z,-1.57
2023-02-09T02:00:06.519Z,-1.70
2023-02-09T02:01:06.556Z,-1.62
2023-02-09T02:02:06.521Z,-1.64
2023-02-09T02:03:06.437Z,-1.65
2023-02-09T02:04:06.441Z,-1.71
2023-02-09T02:05:06.399Z,-1.72
2023-02-09T02:06:06.388Z,-1.59
2023-02-09T02:07:06.361Z,-1.68
2023-02-09T02:08:06.352Z,-1.77
2023-02-09T02:09:06.355Z,-1.70
2023-02-09T02:10:06.321Z,-1.72
2023-02-09T02:11:20.051Z,-1.65
2023-02-09T02:12:06.286Z,-1.67
2023-02-09T02:13:06.249Z,-1.71
2023-02-09T02:14:06.267Z,-1.70
2023-02-09T02:15:06.226Z,-1.75
2023-02-09T02:16:06.260Z,-1.70
2023-02-09T02:17:06.184Z,-1.77
2023-02-09T02:18:06.158Z,-1.78
2023-02-09T02:19:06.192Z,-1.65
2023-02-09T02:20:06.123Z,-1.67
2023-02-09T02:21:06.114Z,-1.80
2023-02-09T02:22:06.090Z,-1.70
2023-02-09T02:23:06.081Z,-1.71
2023-02-09T02:24:06.074Z,-1.67
2023-02-09T02:25:06.093Z,-1.85
2023-02-09T02:26:07.179Z,-1.71
2023-02-09T02:27:07.013Z,-1.78
2023-02-09T02:28:06.036Z,-1.80
2023-02-09T02:29:05.961Z,-1.86
2023-02-09T02:30:06.057Z,-1.74
2023-02-09T02:31:06.073Z,-1.80
2023-02-09T02:32:05.920Z,-1.82
2023-02-09T02:33:05.893Z,-1.82
2023-02-09T02:34:05.885Z,-1.83
2023-02-09T02:35:05.906Z,-1.82
2023-02-09T02:36:05.843Z,-1.80
2023-02-09T02:37:05.829Z,-1.80
2023-02-09T02:38:05.803Z,-1.86
2023-02-09T02:39:05.791Z,-1.88
2023-02-09T02:40:05.799Z,-1.83
2023-02-09T02:41:05.771Z,-1.83
2023-02-09T02:42:05.734Z,-1.88
2023-02-09T02:43:05.716Z,-1.88
2023-02-09T02:44:05.701Z,-1.88
2023-02-09T02:45:05.716Z,-1.90
2023-02-09T02:46:05.727Z,-1.92
2023-02-09T02:47:05.666Z,-2.06
2023-02-09T02:48:05.644Z,-1.90
2023-02-09T02:49:05.632Z,-1.93
2023-02-09T02:50:05.638Z,-2.00
2023-02-09T02:51:05.646Z,-1.90
2023-02-09T02:52:05.609Z,-1.93
2023-02-09T02:53:05.554Z,-1.90
2023-02-09T02:54:05.544Z,-2.00
2023-02-09T02:55:05.557Z,-2.00
2023-02-09T02:56:05.506Z,-2.01
2023-02-09T02:57:05.489Z,-1.98
2023-02-09T02:58:05.467Z,-2.01
2023-02-09T02:59:05.451Z,-2.07
2023-02-09T03:00:05.484Z,-2.00
2023-02-09T03:01:05.407Z,-2.07
2023-02-09T03:02:05.398Z,-1.96
2023-02-09T03:03:05.372Z,-2.01
2023-02-09T03:04:05.361Z,-1.95
2023-02-09T03:05:05.437Z,-2.00
2023-02-09T03:06:05.325Z,-1.95
2023-02-09T03:07:05.302Z,-2.01
2023-02-09T03:08:05.306Z,-1.98
2023-02-09T03:09:05.273Z,-1.93
2023-02-09T03:10:05.338Z,-1.89
2023-02-09T03:11:05.234Z,-1.88
2023-02-09T03:12:05.229Z,-1.98
2023-02-09T03:13:05.203Z,-1.90
2023-02-09T03:14:05.213Z,-1.78
2023-02-09T03:15:05.195Z,-1.95
2023-02-09T03:16:05.232Z,-2.04
2023-02-09T03:17:05.128Z,-2.04
2023-02-09T03:18:05.116Z,-2.00
2023-02-09T03:19:05.091Z,-2.01
2023-02-09T03:20:05.105Z,-1.95
2023-02-09T03:21:05.065Z,-1.96
2023-02-09T03:22:05.048Z,-2.04
2023-02-09T03:23:05.018Z,-2.01
2023-02-09T03:24:05.004Z,-2.00
2023-02-09T03:25:05.020Z,-2.04
2023-02-09T03:26:04.967Z,-2.06
2023-02-09T03:27:04.946Z,-2.08
2023-02-09T03:28:05.002Z,-2.06
2023-02-09T03:29:04.928Z,-2.06
2023-02-09T03:30:04.941Z,-1.98
2023-02-09T03:31:05.040Z,-2.13
2023-02-09T03:32:04.866Z,-2.11
2023-02-09T03:33:04.858Z,-2.07
2023-02-09T03:34:04.827Z,-2.14
2023-02-09T03:35:04.860Z,-2.14
2023-02-09T03:36:04.802Z,-2.10
2023-02-09T03:37:04.788Z,-2.18
2023-02-09T03:38:04.766Z,-2.11
2023-02-09T03:39:04.749Z,-2.22
2023-02-09T03:40:04.754Z,-2.08
2023-02-09T03:41:06.378Z,-2.24
2023-02-09T03:42:05.697Z,-2.18
2023-02-09T03:43:04.673Z,-2.14
2023-02-09T03:44:04.655Z,-2.26
2023-02-09T03:45:04.715Z,-2.16
2023-02-09T03:46:04.621Z,-2.21
2023-02-09T03:47:04.604Z,-2.28
2023-02-09T03:48:04.596Z,-2.25
2023-02-09T03:49:04.575Z,-2.13
2023-02-09T03:50:04.580Z,-2.32
2023-02-09T03:51:04.535Z,-2.19
2023-02-09T03:52:04.533Z,-2.26
2023-02-09T03:53:04.504Z,-2.25
2023-02-09T03:54:04.489Z,-2.22
2023-02-09T03:55:04.511Z,-2.26
2023-02-09T03:56:04.459Z,-2.22
2023-02-09T03:57:04.437Z,-2.26
2023-02-09T03:58:04.423Z,-2.29
2023-02-09T03:59:04.394Z,-2.29
2023-02-09T04:00:04.423Z,-2.28
2023-02-09T04:01:04.393Z,-2.28
2023-02-09T04:02:04.370Z,-2.22
2023-02-09T04:03:04.333Z,-2.28
2023-02-09T04:04:04.308Z,-2.38
2023-02-09T04:05:05.767Z,-2.37
2023-02-09T04:06:05.302Z,-2.37
2023-02-09T04:07:04.269Z,-2.47
2023-02-09T04:08:04.235Z,-2.37
2023-02-09T04:09:04.233Z,-2.38
2023-02-09T04:10:04.202Z,-2.40
2023-02-09T04:11:04.217Z,-2.35
2023-02-09T04:12:04.178Z,-2.25
2023-02-09T04:13:04.155Z,-2.40
2023-02-09T04:14:04.131Z,-2.38
2023-02-09T04:15:04.118Z,-2.47
2023-02-09T04:16:04.157Z,-2.35
2023-02-09T04:17:04.080Z,-2.41
2023-02-09T04:18:04.062Z,-2.44
2023-02-09T04:19:04.048Z,-2.43
2023-02-09T04:20:04.034Z,-2.40
2023-02-09T04:21:04.052Z,-2.41
2023-02-09T04:22:03.996Z,-2.41
2023-02-09T04:23:03.989Z,-2.47
2023-02-09T04:24:03.953Z,-2.41
2023-02-09T04:25:03.947Z,-2.46
2023-02-09T04:26:03.950Z,-2.44
2023-02-09T04:27:03.909Z,-2.48
2023-02-09T04:28:03.951Z,-2.46
2023-02-09T04:29:03.872Z,-2.51
2023-02-09T04:30:03.861Z,-2.53
2023-02-09T04:31:03.909Z,-2.35
2023-02-09T04:32:03.901Z,-2.43
2023-02-09T04:33:03.802Z,-2.41
2023-02-09T04:34:03.793Z,-2.44
2023-02-09T04:35:03.770Z,-2.46
2023-02-09T04:36:03.779Z,-2.46
2023-02-09T04:37:03.742Z,-2.47
2023-02-09T04:38:03.716Z,-2.53
2023-02-09T04:39:03.697Z,-2.47
2023-02-09T04:40:04.661Z,-2.56
2023-02-09T04:41:03.698Z,-2.48
2023-02-09T04:42:03.649Z,-2.53
2023-02-09T04:43:03.627Z,-2.40
2023-02-09T04:44:03.612Z,-2.48
2023-02-09T04:45:03.599Z,-2.51
2023-02-09T04:46:03.658Z,-2.59
2023-02-09T04:47:03.575Z,-2.47
2023-02-09T04:48:03.544Z,-2.58
2023-02-09T04:49:03.530Z,-2.56
2023-02-09T04:50:04.523Z,-2.56
2023-02-09T04:51:03.524Z,-2.55
2023-02-09T04:52:03.471Z,-2.50
2023-02-09T04:53:03.460Z,-2.61
2023-02-09T04:54:03.438Z,-2.64
2023-02-09T04:55:03.433Z,-2.55
2023-02-09T04:56:03.433Z,-2.56
2023-02-09T04:57:03.396Z,-2.58
2023-02-09T04:58:03.384Z,-2.62
2023-02-09T04:59:03.352Z,-2.69
2023-02-09T05:00:03.337Z,-2.68
2023-02-09T05:01:03.417Z,-2.69
2023-02-09T05:02:03.320Z,-2.62
2023-02-09T05:03:03.288Z,-2.69
2023-02-09T05:04:03.278Z,-2.66
2023-02-09T05:05:03.253Z,-2.66
2023-02-09T05:06:03.267Z,-2.69
2023-02-09T05:07:03.217Z,-2.69
2023-02-09T05:08:03.208Z,-2.61
2023-02-09T05:09:03.197Z,-2.58
2023-02-09T05:10:03.169Z,-2.71
2023-02-09T05:11:03.177Z,-2.68
2023-02-09T05:12:03.135Z,-2.69
2023-02-09T05:13:03.123Z,-2.76
2023-02-09T05:14:03.107Z,-2.82
2023-02-09T05:15:03.095Z,-2.72
2023-02-09T05:16:03.111Z,-2.77
2023-02-09T05:17:03.170Z,-2.82
2023-02-09T05:18:03.029Z,-2.72
2023-02-09T05:19:03.027Z,-2.77
2023-02-09T05:20:03.314Z,-2.80
2023-02-09T05:21:03.009Z,-2.64
2023-02-09T05:22:02.985Z,-2.77
2023-02-09T05:23:02.987Z,-2.76
2023-02-09T05:24:02.965Z,-2.83
2023-02-09T05:25:02.994Z,-2.87
2023-02-09T05:26:02.966Z,-2.89
2023-02-09T05:27:02.874Z,-2.84
2023-02-09T05:28:02.884Z,-2.66
2023-02-09T05:29:02.852Z,-2.76
2023-02-09T05:30:02.825Z,-2.79
2023-02-09T05:31:02.988Z,-2.87
2023-02-09T05:32:02.997Z,-2.82
2023-02-09T05:33:02.774Z,-2.79
2023-02-09T05:34:02.753Z,-2.95
2023-02-09T05:35:02.740Z,-2.79
2023-02-09T05:36:02.778Z,-2.83
2023-02-09T05:37:02.702Z,-2.76
2023-02-09T05:38:02.704Z,-2.84
2023-02-09T05:39:02.705Z,-2.83
2023-02-09T05:40:02.656Z,-2.86
2023-02-09T05:41:02.688Z,-2.83
2023-02-09T05:42:02.618Z,-2.79
2023-02-09T05:43:02.616Z,-2.86
2023-02-09T05:44:02.600Z,-2.87
2023-02-09T05:45:02.588Z,-2.82
2023-02-09T05:46:02.666Z,-2.82
2023-02-09T05:47:02.556Z,-2.89
2023-02-09T05:48:02.524Z,-2.80
2023-02-09T05:49:02.520Z,-2.90
2023-02-09T05:50:02.492Z,-2.87
2023-02-09T05:51:02.502Z,-2.93
2023-02-09T05:52:03.458Z,-2.89
2023-02-09T05:53:02.446Z,-2.87
2023-02-09T05:54:02.422Z,-2.83
2023-02-09T05:55:02.401Z,-2.82
2023-02-09T05:56:02.419Z,-2.76
2023-02-09T05:57:02.369Z,-2.77
2023-02-09T05:58:02.373Z,-2.84
2023-02-09T05:59:04.341Z,-2.77
2023-02-09T06:00:03.322Z,-2.87
2023-02-09T06:01:02.341Z,-2.89
2023-02-09T06:02:02.335Z,-2.97
2023-02-09T06:03:02.271Z,-2.87
2023-02-09T06:04:02.258Z,-2.90
2023-02-09T06:05:02.235Z,-2.93
2023-02-09T06:06:02.247Z,-2.87
2023-02-09T06:07:02.198Z,-2.93
2023-02-09T06:08:02.189Z,-2.95
2023-02-09T06:09:02.177Z,-2.89
2023-02-09T06:10:02.164Z,-2.90
2023-02-09T06:11:02.188Z,-2.94
2023-02-09T06:12:02.120Z,-2.90
2023-02-09T06:13:02.116Z,-2.95
2023-02-09T06:14:02.095Z,-2.95
2023-02-09T06:15:02.073Z,-2.97
2023-02-09T06:16:02.123Z,-2.94
2023-02-09T06:17:02.041Z,-3.04
2023-02-09T06:18:02.015Z,-3.04
2023-02-09T06:19:02.004Z,-3.04
2023-02-09T06:20:02.008Z,-3.05
2023-02-09T06:21:01.961Z,-3.04
2023-02-09T06:22:01.978Z,-3.13
2023-02-09T06:23:01.936Z,-3.10
2023-02-09T06:24:01.933Z,-3.13
2023-02-09T06:25:01.906Z,-3.08
2023-02-09T06:26:01.924Z,-3.07
2023-02-09T06:27:01.870Z,-3.04
2023-02-09T06:28:01.935Z,-3.10
2023-02-09T06:29:01.839Z,-3.15
2023-02-09T06:30:01.815Z,-3.15
2023-02-09T06:31:01.842Z,-3.08
2023-02-09T06:32:02.916Z,-3.12
2023-02-09T06:33:01.770Z,-3.05
2023-02-09T06:34:01.753Z,-3.07
2023-02-09T06:35:01.754Z,-3.07
2023-02-09T06:36:01.775Z,-3.07
2023-02-09T06:37:01.712Z,-3.13
2023-02-09T06:38:01.688Z,-3.13
2023-02-09T06:39:01.686Z,-3.02
2023-02-09T06:40:01.660Z,-2.95
2023-02-09T06:41:01.644Z,-2.94
2023-02-09T06:42:01.669Z,-3.01
2023-02-09T06:43:01.615Z,-3.01
2023-02-09T06:44:01.611Z,-3.01
2023-02-09T06:45:01.569Z,-3.04
2023-02-09T06:46:01.603Z,-2.87
2023-02-09T06:47:01.550Z,-2.89
2023-02-09T06:48:01.605Z,-2.97
2023-02-09T06:49:01.551Z,-2.90
2023-02-09T06:50:01.513Z,-2.95
2023-02-09T06:51:01.465Z,-2.90
2023-02-09T06:52:01.542Z,-2.90
2023-02-09T06:53:01.433Z,-2.93
2023-02-09T06:54:01.423Z,-3.00
2023-02-09T06:55:01.404Z,-2.90
2023-02-09T06:56:01.442Z,-2.83
2023-02-09T06:57:01.361Z,-2.82
2023-02-09T06:58:01.349Z,-2.79
2023-02-09T06:59:01.325Z,-2.84
2023-02-09T07:00:01.310Z,-2.79
2023-02-09T07:01:01.296Z,-2.82
2023-02-09T07:02:01.352Z,-2.77
2023-02-09T07:03:01.378Z,-2.80
2023-02-09T07:04:01.243Z,-2.76
2023-02-09T07:05:01.220Z,-2.84
2023-02-09T07:06:01.212Z,-2.74
2023-02-09T07:07:01.228Z,-2.76
2023-02-09T07:08:01.175Z,-2.80
2023-02-09T07:09:01.168Z,-2.71
2023-02-09T07:10:01.137Z,-2.66
2023-02-09T07:11:01.140Z,-2.64
2023-02-09T07:12:01.152Z,-2.65
2023-02-09T07:13:01.157Z,-2.62
2023-02-09T07:14:01.092Z,-2.61
2023-02-09T07:15:01.053Z,-2.53
2023-02-09T07:16:01.086Z,-2.44
2023-02-09T07:17:01.083Z,-2.48
2023-02-09T07:18:01.003Z,-2.47
2023-02-09T07:19:00.985Z,-2.50
2023-02-09T07:20:00.962Z,-2.46
2023-02-09T07:21:00.958Z,-2.41
2023-02-09T07:22:00.962Z,-2.46
2023-02-09T07:23:00.916Z,-2.32
2023-02-09T07:24:00.907Z,-2.19
2023-02-09T07:25:00.883Z,-2.16
2023-02-09T07:26:00.875Z,-2.21
2023-02-09T07:27:00.920Z,-2.00
2023-02-09T07:28:00.847Z,-1.93
2023-02-09T07:29:00.809Z,-1.44
2023-02-09T07:30:01.317Z,-0.60
2023-02-09T07:31:01.956Z,0.23
2023-02-09T07:32:00.864Z,0.78
2023-02-09T07:33:00.746Z,1.38
2023-02-09T07:34:00.728Z,2.01
2023-02-09T07:35:00.761Z,2.50
2023-02-09T07:36:00.721Z,2.99
2023-02-09T07:37:00.703Z,3.28
2023-02-09T07:38:00.653Z,3.45
2023-02-09T07:39:00.673Z,3.26
2023-02-09T07:40:00.627Z,3.62
2023-02-09T07:41:00.594Z,3.78
2023-02-09T07:42:00.671Z,3.74
2023-02-09T07:43:00.602Z,3.54
2023-02-09T07:44:00.542Z,3.54
2023-02-09T07:45:00.533Z,3.45
2023-02-09T07:46:00.532Z,3.84
2023-02-09T07:47:00.527Z,3.89
2023-02-09T07:48:00.542Z,4.21
2023-02-09T07:49:01.513Z,3.99
2023-02-09T07:50:01.447Z,4.28
2023-02-09T07:51:00.427Z,4.90
2023-02-09T07:52:00.464Z,5.27
2023-02-09T07:53:00.390Z,5.42
2023-02-09T07:54:00.368Z,5.58
2023-02-09T07:55:00.357Z,5.60
2023-02-09T07:56:00.336Z,5.88
2023-02-09T07:57:00.342Z,6.10
2023-02-09T07:58:00.297Z,6.61
2023-02-09T07:59:00.279Z,6.81
2023-02-09T08:00:00.354Z,6.86
2023-02-09T08:01:00.253Z,7.12
2023-02-09T08:02:00.342Z,7.71
2023-02-09T08:03:00.217Z,7.70
2023-02-09T08:04:00.230Z,7.51
2023-02-09T08:05:00.304Z,7.79
2023-02-09T08:06:00.180Z,8.28
2023-02-09T08:07:00.252Z,8.18
2023-02-09T08:08:00.136Z,8.57
2023-02-09T08:09:00.109Z,8.21
2023-02-09T08:10:00.152Z,7.99
2023-02-09T08:11:00.112Z,8.02
2023-02-09T08:12:00.204Z,8.02
2023-02-09T08:13:00.043Z,7.85
2023-02-09T08:14:00.035Z,7.88
2023-02-09T08:15:00.021Z,7.99
2023-02-09T08:16:00.038Z,8.17
2023-02-09T08:17:00.017Z,8.60
2023-02-09T08:18:00.004Z,9.04
2023-02-09T08:18:59.960Z,9.27
2023-02-09T08:19:59.933Z,9.16
2023-02-09T08:20:59.929Z,8.91
2023-02-09T08:21:59.976Z,9.22
2023-02-09T08:22:59.883Z,9.30
2023-02-09T08:23:59.866Z,9.40
2023-02-09T08:24:59.845Z,9.53
2023-02-09T08:25:59.883Z,9.70
2023-02-09T08:26:59.835Z,9.92
2023-02-09T08:27:59.910Z,9.99
2023-02-09T08:28:59.848Z,9.53
2023-02-09T08:29:59.771Z,8.88
2023-02-09T08:30:59.762Z,8.88
2023-02-09T08:31:59.781Z,8.46
2023-02-09T08:32:59.705Z,7.99
2023-02-09T08:33:59.702Z,7.66
2023-02-09T08:34:59.696Z,7.33
2023-02-09T08:35:59.728Z,7.44
2023-02-09T08:36:59.668Z,7.47
2023-02-09T08:37:59.629Z,7.66
2023-02-09T08:38:59.593Z,7.62
2023-02-09T08:39:59.619Z,7.92
2023-02-09T08:40:59.604Z,8.09
2023-02-09T08:41:59.583Z,7.51
2023-02-09T08:42:59.521Z,7.45
2023-02-09T08:43:59.514Z,7.85
2023-02-09T08:44:59.489Z,8.50
2023-02-09T08:45:59.542Z,9.01
2023-02-09T08:46:59.595Z,9.48
2023-02-09T08:47:59.445Z,9.81
2023-02-09T08:48:59.419Z,10.43
2023-02-09T08:49:59.406Z,10.70
2023-02-09T08:50:59.387Z,10.57
2023-02-09T08:51:59.424Z,10.04
2023-02-09T08:52:59.353Z,9.56
2023-02-09T08:53:59.344Z,9.50
2023-02-09T08:54:59.417Z,9.48
2023-02-09T08:55:59.299Z,8.88
2023-02-09T08:56:59.311Z,8.78
2023-02-09T08:57:59.265Z,8.32
2023-02-09T08:58:59.265Z,7.86
2023-02-09T08:59:59.239Z,7.60
2023-02-09T09:01:00.321Z,7.57
2023-02-09T09:01:59.229Z,7.67
2023-02-09T09:02:59.213Z,7.50
2023-02-09T09:03:59.188Z,7.73
2023-02-09T09:04:59.259Z,7.66
2023-02-09T09:05:59.177Z,7.44
2023-02-09T09:06:59.128Z,7.82
2023-02-09T09:07:59.133Z,7.74
2023-02-09T09:08:59.086Z,8.04
2023-02-09T09:09:59.126Z,8.03
2023-02-09T09:10:59.097Z,8.21
2023-02-09T09:11:59.021Z,8.73
2023-02-09T09:12:59.045Z,8.55
2023-02-09T09:13:58.985Z,8.71
2023-02-09T09:14:58.973Z,8.37
2023-02-09T09:15:58.948Z,8.31
2023-02-09T09:16:58.983Z,8.29
2023-02-09T09:17:58.937Z,8.04
2023-02-09T09:18:58.918Z,8.12
2023-02-09T09:19:58.872Z,8.04
2023-02-09T09:20:58.851Z,8.39
2023-02-09T09:21:58.851Z,8.32
2023-02-09T09:22:58.873Z,8.37
2023-02-09T09:23:58.827Z,8.10
2023-02-09T09:25:11.271Z,8.40
2023-02-09T09:25:58.764Z,8.73
2023-02-09T09:26:58.749Z,9.08
2023-02-09T09:27:58.848Z,9.52
2023-02-09T09:28:58.710Z,9.65
2023-02-09T09:29:58.726Z,9.55
2023-02-09T09:30:58.721Z,10.09
2023-02-09T09:31:58.762Z,10.32
2023-02-09T09:32:58.741Z,10.66
2023-02-09T09:33:58.645Z,10.90
2023-02-09T09:34:58.611Z,11.16
2023-02-09T09:35:58.598Z,11.08
2023-02-09T09:36:58.582Z,10.80
2023-02-09T09:37:58.658Z,10.44
2023-02-09T09:38:58.556Z,10.66
2023-02-09T09:39:58.553Z,10.36
2023-02-09T09:40:58.534Z,10.29
2023-02-09T09:41:58.500Z,10.28
2023-02-09T09:42:58.518Z,10.13
2023-02-09T09:43:58.473Z,10.35
2023-02-09T09:44:58.458Z,10.11
2023-02-09T09:45:58.470Z,10.35
2023-02-09T09:46:58.417Z,10.43
2023-02-09T09:47:58.496Z,10.34
2023-02-09T09:48:58.389Z,10.34
2023-02-09T09:49:58.360Z,10.60
2023-02-09T09:50:58.354Z,10.69
2023-02-09T09:51:58.325Z,11.02
2023-02-09T09:52:58.355Z,10.58
2023-02-09T09:53:58.291Z,10.11
2023-02-09T09:54:58.280Z,10.10
2023-02-09T09:55:58.265Z,10.44
2023-02-09T09:56:58.315Z,10.28
2023-02-09T09:57:58.257Z,10.20
2023-02-09T09:58:58.208Z,9.93
2023-02-09T09:59:58.197Z,9.74
2023-02-09T10:00:58.178Z,9.81
2023-02-09T10:01:58.159Z,9.80
2023-02-09T10:02:58.169Z,9.91
2023-02-09T10:03:58.118Z,10.07
2023-02-09T10:04:58.117Z,10.43
2023-02-09T10:05:58.127Z,10.26
2023-02-09T10:06:58.067Z,10.47
2023-02-09T10:07:58.087Z,10.28
2023-02-09T10:08:58.037Z,10.46
2023-02-09T10:09:58.017Z,10.76
2023-02-09T10:10:58.021Z,10.86
2023-02-09T10:11:57.999Z,10.70
2023-02-09T10:12:58.004Z,10.69
2023-02-09T10:13:57.960Z,11.01
2023-02-09T10:14:57.942Z,10.98
2023-02-09T10:15:57.936Z,10.95
2023-02-09T10:16:57.972Z,11.26
2023-02-09T10:17:57.918Z,11.45
2023-02-09T10:18:57.867Z,11.63
2023-02-09T10:19:57.847Z,12.01
2023-02-09T10:20:57.841Z,12.01
2023-02-09T10:21:57.840Z,12.08
2023-02-09T10:22:57.841Z,12.15
2023-02-09T10:23:57.797Z,12.52
2023-02-09T10:24:57.774Z,12.74
2023-02-09T10:25:57.759Z,12.94
2023-02-09T10:26:57.776Z,13.10
2023-02-09T10:27:57.813Z,12.81
2023-02-09T10:28:57.757Z,12.96
2023-02-09T10:29:57.685Z,13.09
2023-02-09T10:30:57.784Z,12.96
2023-02-09T10:31:57.706Z,12.94
2023-02-09T10:32:57.663Z,13.09
2023-02-09T10:33:57.615Z,13.01
2023-02-09T10:34:57.593Z,13.21
2023-02-09T10:35:57.579Z,12.91
2023-02-09T10:36:57.576Z,12.71
2023-02-09T10:37:57.583Z,12.48
2023-02-09T10:38:57.538Z,12.12
2023-02-09T10:39:57.526Z,12.19
2023-02-09T10:40:57.491Z,12.15
2023-02-09T10:41:58.486Z,11.98
2023-02-09T10:42:57.503Z,11.79
2023-02-09T10:43:57.446Z,11.44
2023-02-09T10:44:57.442Z,11.45
2023-02-09T10:45:57.460Z,11.31
2023-02-09T10:46:57.389Z,11.30
2023-02-09T10:47:57.423Z,11.09
2023-02-09T10:48:57.363Z,11.19
2023-02-09T10:49:57.366Z,11.31
2023-02-09T10:50:57.338Z,11.41
2023-02-09T10:51:57.318Z,11.59
2023-02-09T10:52:57.330Z,11.67
2023-02-09T10:53:57.284Z,11.70
2023-02-09T10:54:57.262Z,11.93
2023-02-09T10:55:57.244Z,11.78
2023-02-09T10:56:57.233Z,11.88
2023-02-09T10:57:57.251Z,11.78
2023-02-09T10:58:57.225Z,12.03
2023-02-09T10:59:57.185Z,12.21
2023-02-09T11:00:57.173Z,12.26
2023-02-09T11:01:57.150Z,12.04
2023-02-09T11:02:57.169Z,12.12
2023-02-09T11:03:57.133Z,11.96
2023-02-09T11:04:57.099Z,11.98
2023-02-09T11:05:57.078Z,11.70
2023-02-09T11:06:57.073Z,11.69
2023-02-09T11:07:57.076Z,11.62
2023-02-09T11:08:57.036Z,11.46
2023-02-09T11:09:57.137Z,11.30
2023-02-09T11:10:56.998Z,11.28
2023-02-09T11:11:57.006Z,10.99
2023-02-09T11:12:57.008Z,10.84
2023-02-09T11:13:56.966Z,10.72
2023-02-09T11:14:56.935Z,10.88
2023-02-09T11:15:56.964Z,10.88
2023-02-09T11:16:56.903Z,11.13
2023-02-09T11:17:56.918Z,11.19
2023-02-09T11:18:56.899Z,10.63
2023-02-09T11:19:56.847Z,10.35
2023-02-09T11:20:56.841Z,10.57
2023-02-09T11:21:56.830Z,10.58
2023-02-09T11:22:56.812Z,10.83
2023-02-09T11:23:57.782Z,11.08
2023-02-09T11:24:56.780Z,11.17
2023-02-09T11:25:56.753Z,11.01
2023-02-09T11:26:56.761Z,11.01
2023-02-09T11:27:56.749Z,10.93
2023-02-09T11:28:57.736Z,11.08
2023-02-09T11:29:56.689Z,10.98
2023-02-09T11:30:56.768Z,10.99
2023-02-09T11:31:56.758Z,11.05
2023-02-09T11:32:56.641Z,11.24
2023-02-09T11:33:56.650Z,11.33
2023-02-09T11:34:57.972Z,11.38
2023-02-09T11:35:56.582Z,11.36
2023-02-09T11:36:56.568Z,11.36
2023-02-09T11:37:56.541Z,11.16
2023-02-09T11:38:56.565Z,10.84
2023-02-09T11:39:56.516Z,10.90
2023-02-09T11:40:56.498Z,10.65
2023-02-09T11:41:56.492Z,10.32
2023-02-09T11:42:56.455Z,9.95
2023-02-09T11:43:56.471Z,9.86
2023-02-09T11:44:56.420Z,9.67
2023-02-09T11:45:56.419Z,8.70
2023-02-09T11:46:56.389Z,8.10
2023-02-09T11:47:56.385Z,7.86
2023-02-09T11:48:56.430Z,7.23
2023-02-09T11:49:56.342Z,7.09
2023-02-09T11:50:56.314Z,6.75
2023-02-09T11:51:56.316Z,6.42
2023-02-09T11:52:56.326Z,6.50
2023-02-09T11:53:56.303Z,6.61
2023-02-09T11:54:56.255Z,6.79
2023-02-09T11:55:56.237Z,6.89
2023-02-09T11:56:56.230Z,7.12
2023-02-09T11:57:56.204Z,7.32
2023-02-09T11:58:56.222Z,7.44
2023-02-09T11:59:56.173Z,7.37
2023-02-09T12:01:06.814Z,7.50
2023-02-09T12:01:58.148Z,7.47
2023-02-09T12:02:56.195Z,7.50
2023-02-09T12:03:56.134Z,7.45
2023-02-09T12:04:56.094Z,7.39
2023-02-09T12:05:56.095Z,7.30
2023-02-09T12:06:56.114Z,7.18
2023-02-09T12:07:56.048Z,7.15
2023-02-09T12:08:56.058Z,7.01
2023-02-09T12:09:56.011Z,7.00
2023-02-09T12:10:55.988Z,6.96
2023-02-09T12:11:56.003Z,6.65
2023-02-09T12:12:55.953Z,6.63
2023-02-09T12:13:55.967Z,6.55
2023-02-09T12:14:55.920Z,6.57
2023-02-09T12:15:55.967Z,6.53
2023-02-09T12:16:55.882Z,6.57
2023-02-09T12:17:55.864Z,6.50
2023-02-09T12:18:55.871Z,6.63
2023-02-09T12:19:55.837Z,6.73
2023-02-09T12:20:55.814Z,6.72
2023-02-09T12:21:55.806Z,6.57
2023-02-09T12:22:55.792Z,6.36
2023-02-09T12:23:55.804Z,5.85
2023-02-09T12:24:55.761Z,5.45
2023-02-09T12:25:55.730Z,5.04
2023-02-09T12:26:55.727Z,4.90
2023-02-09T12:27:55.712Z,4.74
2023-02-09T12:28:55.711Z,4.51
2023-02-09T12:29:55.662Z,4.56
2023-02-09T12:30:55.688Z,4.50
2023-02-09T12:31:55.726Z,4.64
2023-02-09T12:32:55.607Z,4.65
2023-02-09T12:33:55.621Z,4.88
2023-02-09T12:34:55.618Z,4.74
2023-02-09T12:35:55.570Z,4.93
2023-02-09T12:36:55.543Z,4.87
2023-02-09T12:37:55.535Z,4.68
2023-02-09T12:38:57.231Z,4.46
2023-02-09T12:39:59.949Z,4.54
2023-02-09T12:40:56.509Z,4.39
2023-02-09T12:41:55.478Z,4.34
2023-02-09T12:42:55.454Z,4.13
2023-02-09T12:43:55.465Z,3.95
2023-02-09T12:44:55.404Z,3.96
2023-02-09T12:45:55.468Z,3.95
2023-02-09T12:46:55.369Z,3.90
2023-02-09T12:47:55.357Z,3.96
2023-02-09T12:48:55.379Z,3.96
2023-02-09T12:49:55.323Z,4.06
2023-02-09T12:50:55.309Z,4.13
2023-02-09T12:51:55.285Z,4.28
2023-02-09T12:52:55.276Z,4.38
2023-02-09T12:53:55.283Z,4.50
2023-02-09T12:54:55.248Z,4.68
2023-02-09T12:55:55.213Z,4.83
2023-02-09T12:56:55.205Z,4.94
2023-02-09T12:57:55.190Z,4.96
2023-02-09T12:58:55.169Z,4.80